Time;durP1;ratioP1;P1;durP2;ratioP2;P2;SDS_P1;SDS_P2;PMS_P1;PMS_P2;Temp;Humidity;BMP_temperature;BMP_pressure;BME280_temperature;BME280_humidity;BME280_pressure;Samples;Min_cycle;Max_cycle;Signal;HPM_P1;HPM_P2
2024/02/06 00:02:16;;;;;;;9.45;4.65;;;;;;;1.82;79.94;99028.13;4923413;28;103223;-68
2024/02/06 00:04:44;;;;;;;12.15;6.75;;;;;;;1.86;79.53;99027.91;4906008;28;102748;-68
2024/02/06 00:07:14;;;;;;;13.77;6.32;;;;;;;1.80;79.31;99019.53;4920813;28;102756;-68
2024/02/06 00:14:55;;;;;;;14.95;5.95;;;;;;;1.86;80.58;99022.66;4926160;28;103180;-69
2024/02/06 00:17:24;;;;;;;8.13;5.18;;;;;;;1.97;79.42;99020.16;4931169;28;102694;-67
2024/02/06 00:19:55;;;;;;;12.80;6.82;;;;;;;1.41;80.20;99023.06;4927029;28;103536;-68
2024/02/06 00:22:23;;;;;;;13.35;6.78;;;;;;;1.76;80.74;99023.31;4927511;28;103858;-68
2024/02/06 00:24:58;;;;;;;7.25;4.65;;;;;;;1.80;79.57;99024.75;4925718;28;103186;-68
2024/02/06 00:27:26;;;;;;;11.15;6.82;;;;;;;1.50;79.30;99027.66;4925030;28;102632;-68
2024/02/06 00:29:55;;;;;;;9.60;4.75;;;;;;;1.68;79.52;99036.03;4927241;28;103925;-68
2024/02/06 00:32:24;;;;;;;11.88;6.63;;;;;;;1.46;79.94;99042.69;4924881;28;105194;-68
2024/02/06 00:34:56;;;;;;;9.50;5.22;;;;;;;1.61;79.48;99035.63;4929112;28;103385;-68
2024/02/06 00:37:32;;;;;;;13.90;6.32;;;;;;;1.22;81.13;99034.72;4922121;28;103007;-68
2024/02/06 00:44:52;;;;;;;10.88;4.97;;;;;;;1.87;81.38;99034.78;4920879;28;103126;-67
2024/02/06 00:47:21;;;;;;;12.27;5.65;;;;;;;1.92;80.03;99037.94;4923788;28;103210;-68
2024/02/06 00:49:51;;;;;;;16.30;6.60;;;;;;;1.82;79.35;99037.69;4903979;28;102674;-68
2024/02/06 00:52:22;;;;;;;12.00;6.15;;;;;;;1.86;79.33;99038.34;4925107;28;104109;-68
2024/02/06 00:54:53;;;;;;;12.95;6.45;;;;;;;1.79;78.74;99033.53;4912857;28;105317;-68
2024/02/06 00:57:21;;;;;;;9.15;4.70;;;;;;;1.94;79.04;99031.66;4906405;28;104214;-68
2024/02/06 00:59:50;;;;;;;9.98;5.07;;;;;;;1.78;79.71;99031.03;4944618;22;104094;-68
2024/02/06 01:02:18;;;;;;;10.88;5.45;;;;;;;1.76;79.40;99036.34;4932513;28;104038;-68
2024/02/06 01:04:46;;;;;;;12.80;5.95;;;;;;;1.74;80.03;99040.00;4951863;28;103470;-63
2024/02/06 01:07:16;;;;;;;14.63;7.07;;;;;;;1.74;79.75;99030.41;4944434;28;103219;-64
2024/02/06 01:09:44;;;;;;;12.68;5.65;;;;;;;1.85;79.79;99032.28;4945762;28;102804;-64
2024/02/06 01:12:12;;;;;;;14.73;6.80;;;;;;;1.82;79.52;99033.34;4951717;28;102766;-64
2024/02/06 01:14:40;;;;;;;11.15;5.20;;;;;;;1.92;79.25;99025.69;4934912;28;104215;-64
2024/02/06 01:17:08;;;;;;;12.10;5.53;;;;;;;2.01;79.21;99026.84;4939474;28;103445;-63
2024/02/06 01:19:47;;;;;;;24.67;10.85;;;;;;;1.96;78.89;99036.78;4947877;28;103644;-63
2024/02/06 01:22:16;;;;;;;17.58;8.55;;;;;;;1.98;78.46;99040.97;4939478;28;102713;-64
2024/02/06 01:24:44;;;;;;;16.20;8.23;;;;;;;1.72;79.59;99034.06;4934502;28;103250;-64
2024/02/06 01:27:12;;;;;;;18.55;7.57;;;;;;;1.96;80.02;99034.16;4947674;28;103269;-64
2024/02/06 01:29:40;;;;;;;12.50;5.53;;;;;;;2.13;79.30;99026.00;4953004;28;102789;-63
2024/02/06 01:32:08;;;;;;;14.95;6.65;;;;;;;1.92;79.94;99036.16;4952732;28;102608;-63
2024/02/06 01:34:36;;;;;;;14.73;6.53;;;;;;;1.70;81.25;99033.31;4943071;28;103271;-63
2024/02/06 01:37:07;;;;;;;9.23;4.53;;;;;;;2.02;80.94;99033.75;4951982;28;103826;-64
2024/02/06 01:39:36;;;;;;;11.35;4.57;;;;;;;2.00;80.27;99033.00;4946479;28;102888;-64
2024/02/06 01:46:30;;;;;;;11.02;5.35;;;;;;;1.98;80.38;99032.28;4946116;28;103772;-63
2024/02/06 01:49:00;;;;;;;9.68;5.57;;;;;;;2.10;80.86;99028.81;4953823;28;103283;-63
2024/02/06 01:51:36;;;;;;;10.98;5.07;;;;;;;2.12;79.79;99026.97;4954875;28;102728;-64
2024/02/06 01:54:05;;;;;;;7.57;4.28;;;;;;;2.29;79.86;99035.38;4930126;28;104186;-64
2024/02/06 01:56:36;;;;;;;8.48;4.70;;;;;;;2.31;79.50;99028.28;4949079;28;103320;-65
2024/02/06 01:59:06;;;;;;;7.32;3.80;;;;;;;2.36;79.75;99030.56;4948959;28;103333;-64
2024/02/06 02:01:34;;;;;;;10.82;5.20;;;;;;;2.39;79.61;99030.38;4948948;28;102585;-63
2024/02/06 02:04:03;;;;;;;8.85;4.80;;;;;;;2.07;80.68;99026.44;4946510;28;102787;-64
2024/02/06 02:06:31;;;;;;;11.57;4.28;;;;;;;2.26;80.76;99019.94;4952172;28;104344;-63
2024/02/06 02:09:00;;;;;;;10.02;4.40;;;;;;;2.38;80.53;99029.50;4945269;28;103242;-63
2024/02/06 02:11:28;;;;;;;7.70;4.57;;;;;;;2.48;80.52;99017.47;4943449;28;102716;-64
2024/02/06 02:13:57;;;;;;;8.65;4.30;;;;;;;2.51;79.51;99018.19;4948331;28;103857;-63
2024/02/06 02:16:25;;;;;;;12.02;4.60;;;;;;;2.59;79.42;99016.69;4936173;28;104436;-63
2024/02/06 02:18:58;;;;;;;9.90;4.20;;;;;;;2.63;79.06;99022.53;4953136;28;104195;-63
2024/02/06 02:21:29;;;;;;;11.40;5.15;;;;;;;2.69;78.87;99014.28;4930327;28;103121;-64
2024/02/06 02:23:58;;;;;;;12.88;5.60;;;;;;;2.61;78.26;99016.59;4941399;28;103635;-63
2024/02/06 02:26:27;;;;;;;9.38;5.05;;;;;;;2.51;78.28;99024.25;4948636;28;103197;-63
2024/02/06 02:28:55;;;;;;;8.82;4.10;;;;;;;2.51;78.81;99019.03;4942909;28;103236;-63
2024/02/06 02:31:26;;;;;;;11.10;5.60;;;;;;;2.47;78.22;99013.16;4948240;28;102720;-64
2024/02/06 02:34:10;;;;;;;8.00;4.68;;;;;;;2.45;79.25;99009.00;4951923;28;102769;-62
2024/02/06 02:36:40;;;;;;;10.70;5.07;;;;;;;2.45;79.57;99014.22;4950653;28;104375;-64
2024/02/06 02:43:29;;;;;;;12.73;5.15;;;;;;;2.65;79.09;99012.81;4947628;28;102738;-64
2024/02/06 02:45:58;;;;;;;10.82;5.07;;;;;;;2.68;79.27;99009.97;4961417;28;103914;-64
2024/02/06 02:48:26;;;;;;;10.02;4.70;;;;;;;2.57;79.65;99010.75;4952279;28;103312;-64
2024/02/06 02:51:00;;;;;;;12.85;6.03;;;;;;;2.48;79.54;99009.63;4956180;28;103330;-64
2024/02/06 02:53:30;;;;;;;9.00;4.18;;;;;;;2.70;79.62;99008.09;4931988;28;102597;-64
2024/02/06 02:55:59;;;;;;;12.48;5.88;;;;;;;2.74;79.64;99013.91;4934407;28;102700;-64
2024/02/06 02:58:27;;;;;;;10.10;4.93;;;;;;;2.76;79.63;99012.03;4947343;28;104272;-69
2024/02/06 03:00:58;;;;;;;11.30;5.15;;;;;;;2.82;78.80;99017.66;4948732;28;103234;-68
2024/02/06 03:03:26;;;;;;;12.20;5.30;;;;;;;2.84;79.16;99011.50;4949569;28;102693;-67
2024/02/06 03:05:54;;;;;;;9.73;4.18;;;;;;;2.91;79.03;99017.94;4940738;28;102631;-63
2024/02/06 03:08:22;;;;;;;11.23;5.20;;;;;;;2.70;79.26;99018.56;4949591;28;103235;-63
2024/02/06 03:10:51;;;;;;;12.32;4.82;;;;;;;2.82;79.72;99012.44;4956609;28;103205;-64
2024/02/06 03:17:43;;;;;;;17.98;6.20;;;;;;;2.81;80.08;99002.91;4952272;28;103522;-63
2024/02/06 03:20:12;;;;;;;9.65;5.32;;;;;;;2.91;79.89;99003.09;4928281;28;104117;-65
2024/02/06 03:22:40;;;;;;;12.68;6.47;;;;;;;2.82;79.16;98998.53;4951517;28;103293;-64
2024/02/06 03:29:47;;;;;;;13.55;5.57;;;;;;;2.71;79.64;98995.84;4958846;28;102600;-63
2024/02/06 03:32:15;;;;;;;14.00;6.20;;;;;;;2.77;79.58;98998.84;4949428;28;104234;-63
2024/02/06 03:34:43;;;;;;;11.32;5.05;;;;;;;2.86;79.29;99004.38;4947812;28;103258;-64
2024/02/06 03:41:23;;;;;;;9.45;4.97;;;;;;;2.98;79.19;99016.56;4948931;28;102661;-63
2024/02/06 03:43:51;;;;;;;13.25;5.40;;;;;;;2.99;78.32;99018.22;4960026;28;103733;-64
2024/02/06 03:46:20;;;;;;;10.70;5.55;;;;;;;2.92;79.39;99028.31;4934885;28;103311;-63
2024/02/06 03:48:48;;;;;;;14.88;5.25;;;;;;;3.01;78.74;99015.50;4952304;28;102632;-64
2024/02/06 03:51:16;;;;;;;13.52;6.40;;;;;;;3.04;78.71;99025.72;4946724;28;102761;-64
2024/02/06 03:53:44;;;;;;;9.90;5.05;;;;;;;3.02;79.04;99023.22;4949966;28;103383;-63
2024/02/06 03:56:16;;;;;;;16.83;6.82;;;;;;;2.92;79.17;99024.84;4948026;28;103251;-63
2024/02/06 03:58:46;;;;;;;16.85;7.03;;;;;;;2.75;80.02;99029.53;4952353;28;103145;-65
2024/02/06 04:01:14;;;;;;;14.77;6.13;;;;;;;2.89;79.40;99027.69;4949361;28;102693;-65
2024/02/06 04:03:45;;;;;;;16.45;6.93;;;;;;;2.85;79.72;99034.09;4936224;28;104503;-65
2024/02/06 04:06:13;;;;;;;12.85;6.90;;;;;;;2.87;79.98;99025.19;4930156;28;104243;-63
2024/02/06 04:08:41;;;;;;;14.32;6.80;;;;;;;2.98;79.55;99030.47;4951698;28;102794;-63
2024/02/06 04:15:50;;;;;;;12.32;5.68;;;;;;;3.21;79.42;99032.34;4952535;28;104129;-63
2024/02/06 04:18:19;;;;;;;14.70;5.97;;;;;;;3.23;79.82;99020.81;4927455;28;103206;-64
2024/02/06 04:20:48;;;;;;;13.30;7.03;;;;;;;3.32;79.31;99020.13;4954334;28;102925;-63
2024/02/06 04:23:16;;;;;;;12.77;6.20;;;;;;;3.32;79.54;99029.78;4933847;28;104275;-63
2024/02/06 04:25:45;;;;;;;16.95;7.40;;;;;;;3.39;79.56;99024.91;4930260;28;103986;-63
2024/02/06 04:28:13;;;;;;;12.32;7.05;;;;;;;3.33;79.45;99031.47;4928448;28;103245;-64
2024/02/06 04:35:00;;;;;;;15.05;6.82;;;;;;;3.24;78.48;99032.13;4949107;28;103132;-63
2024/02/06 04:37:29;;;;;;;10.88;5.47;;;;;;;3.27;78.42;99024.06;4926716;28;103334;-63
2024/02/06 04:39:57;;;;;;;11.88;6.05;;;;;;;3.24;78.33;99034.75;4935543;28;103267;-63
2024/02/06 04:42:25;;;;;;;13.35;7.15;;;;;;;2.99;78.16;99031.31;4946508;28;102604;-63
2024/02/06 04:44:53;;;;;;;9.45;5.75;;;;;;;3.09;78.75;99032.31;4947763;28;103890;-63
2024/02/06 04:47:21;;;;;;;19.80;7.20;;;;;;;2.93;78.21;99024.72;4955175;28;104175;-63
2024/02/06 04:49:49;;;;;;;16.65;7.22;;;;;;;2.88;78.43;99026.00;4951900;28;103189;-64
2024/02/06 04:52:17;;;;;;;16.17;6.50;;;;;;;3.00;78.75;99019.91;4947018;28;102705;-64
2024/02/06 04:54:47;;;;;;;13.15;6.13;;;;;;;3.06;78.32;99016.00;4950059;28;103046;-64
2024/02/06 04:57:15;;;;;;;13.52;4.95;;;;;;;3.11;78.05;99006.84;4933111;28;103260;-64
2024/02/06 04:59:43;;;;;;;11.68;6.28;;;;;;;3.14;77.94;98996.19;4949200;28;103195;-64
2024/02/06 05:02:12;;;;;;;14.60;7.00;;;;;;;3.00;78.16;98996.34;4948268;28;102701;-64
2024/02/06 05:04:40;;;;;;;16.02;7.65;;;;;;;3.11;77.86;98975.44;4929410;28;102829;-64
2024/02/06 05:07:08;;;;;;;14.00;7.13;;;;;;;3.10;78.22;98968.53;4950768;28;104336;-63
2024/02/06 05:09:37;;;;;;;14.52;6.97;;;;;;;2.85;79.12;98973.94;4952038;28;103229;-64
2024/02/06 05:12:07;;;;;;;11.20;6.03;;;;;;;3.05;79.44;98965.41;4952797;28;102702;-64
2024/02/06 05:14:36;;;;;;;15.60;6.72;;;;;;;3.17;78.84;98955.00;4948846;28;102669;-64
2024/02/06 05:17:05;;;;;;;17.45;6.53;;;;;;;3.13;79.13;98957.84;4947585;28;102889;-64
2024/02/06 05:19:34;;;;;;;14.02;7.05;;;;;;;3.10;79.08;98952.84;4946855;28;103275;-63
2024/02/06 05:22:03;;;;;;;12.35;5.65;;;;;;;3.20;78.94;98952.19;4946230;28;102759;-63
2024/02/06 05:24:31;;;;;;;12.15;5.55;;;;;;;3.09;79.10;98951.19;4948776;28;102990;-63
2024/02/06 05:26:59;;;;;;;14.07;5.80;;;;;;;3.14;78.68;98946.44;4932771;28;103018;-63
2024/02/06 05:29:28;;;;;;;16.45;7.55;;;;;;;3.21;78.27;98935.50;4953571;28;103270;-63
2024/02/06 05:31:56;;;;;;;11.77;5.80;;;;;;;3.18;78.60;98939.19;4951999;28;103054;-65
2024/02/06 05:39:19;;;;;;;17.08;5.75;;;;;;;3.28;77.77;98928.88;4943206;28;103064;-64
2024/02/06 05:41:47;;;;;;;12.75;5.43;;;;;;;3.32;78.26;98938.97;4928287;28;103392;-63
2024/02/06 05:44:18;;;;;;;16.23;5.90;;;;;;;3.41;77.65;98937.44;4948154;28;102731;-63
2024/02/06 05:46:48;;;;;;;12.43;5.55;;;;;;;3.47;77.29;98934.38;4948147;28;104113;-63
2024/02/06 05:49:16;;;;;;;12.45;5.03;;;;;;;3.56;77.00;98943.28;4957259;28;103356;-63
2024/02/06 05:51:44;;;;;;;10.50;4.10;;;;;;;3.65;76.72;98939.13;4950157;28;103839;-66
2024/02/06 05:54:12;;;;;;;9.82;4.28;;;;;;;3.69;76.64;98937.94;4958221;28;102641;-64
2024/02/06 05:56:40;;;;;;;13.68;4.47;;;;;;;3.79;76.07;98932.84;4956556;28;102712;-64
2024/02/06 05:59:08;;;;;;;15.10;4.45;;;;;;;3.78;75.53;98932.00;4950999;28;104374;-64
2024/02/06 06:01:36;;;;;;;9.18;4.07;;;;;;;3.73;75.27;98926.28;4939087;28;102982;-64
2024/02/06 06:04:06;;;;;;;13.13;5.15;;;;;;;3.78;75.23;98926.75;4936294;28;102770;-64
2024/02/06 06:06:37;;;;;;;10.05;4.80;;;;;;;3.83;75.22;98933.44;4935107;28;103700;-64
2024/02/06 06:09:06;;;;;;;14.15;4.40;;;;;;;3.89;75.36;98932.94;4919625;28;104562;-64
2024/02/06 06:11:34;;;;;;;11.10;4.28;;;;;;;3.96;75.42;98944.63;4935668;28;104162;-64
2024/02/06 06:14:02;;;;;;;11.15;4.47;;;;;;;4.02;74.72;98949.38;4917961;28;103146;-63
2024/02/06 06:16:30;;;;;;;9.13;3.78;;;;;;;4.06;75.06;98945.59;4939727;28;104153;-63
2024/02/06 06:18:58;;;;;;;9.77;4.40;;;;;;;4.06;74.68;98944.72;4929752;28;103221;-64
2024/02/06 06:21:28;;;;;;;9.88;4.18;;;;;;;4.05;75.11;98943.91;4939734;28;103818;-64
2024/02/06 06:23:56;;;;;;;15.20;4.25;;;;;;;4.01;75.09;98942.50;4949554;28;102656;-65
2024/02/06 06:26:37;;;;;;;12.57;4.88;;;;;;;4.07;74.91;98942.00;4955596;28;104092;-64
2024/02/06 06:29:15;;;;;;;11.80;3.95;;;;;;;4.08;74.89;98929.72;4939156;28;103101;-64
2024/02/06 06:36:02;;;;;;;9.02;3.60;;;;;;;4.07;74.03;98923.63;4951281;28;102902;-64
2024/02/06 06:38:32;;;;;;;16.42;3.80;;;;;;;4.13;74.10;98925.78;4938842;28;102798;-64
2024/02/06 06:41:00;;;;;;;12.68;5.25;;;;;;;4.14;74.03;98932.69;4955620;28;103307;-64
2024/02/06 06:43:28;;;;;;;12.65;4.05;;;;;;;4.09;73.71;98929.59;4962275;28;103222;-65
2024/02/06 06:45:57;;;;;;;12.80;3.95;;;;;;;4.20;73.65;98936.63;4954425;28;102697;-64
2024/02/06 06:48:29;;;;;;;12.75;4.75;;;;;;;4.17;73.80;98933.41;4948239;28;102736;-64
2024/02/06 06:50:57;;;;;;;13.57;4.18;;;;;;;4.25;73.83;98944.13;4940212;28;104243;-64
2024/02/06 06:53:25;;;;;;;10.80;4.05;;;;;;;4.17;72.96;98936.88;4957357;28;104272;-64
2024/02/06 06:55:54;;;;;;;14.68;4.55;;;;;;;4.22;73.55;98944.34;4958242;28;102857;-64
2024/02/06 06:58:22;;;;;;;11.65;4.10;;;;;;;4.22;72.89;98939.97;4944421;28;104296;-64
2024/02/06 07:00:51;;;;;;;17.83;4.00;;;;;;;4.26;73.48;98936.13;4946726;28;104075;-65
2024/02/06 07:03:19;;;;;;;13.52;4.95;;;;;;;4.22;72.71;98945.22;4959173;28;103198;-64
2024/02/06 07:05:51;;;;;;;14.82;4.45;;;;;;;4.30;72.99;98945.41;4962492;28;102613;-64
2024/02/06 07:08:19;;;;;;;13.93;4.05;;;;;;;4.30;72.56;98931.50;4955875;28;102720;-65
2024/02/06 07:10:47;;;;;;;14.27;4.47;;;;;;;4.26;72.37;98940.56;4956233;28;104131;-64
2024/02/06 07:13:17;;;;;;;8.45;3.88;;;;;;;4.23;72.49;98936.38;4935902;28;103218;-65
2024/02/06 07:15:45;;;;;;;10.15;4.38;;;;;;;4.25;71.94;98928.41;4939404;28;102695;-65
2024/02/06 07:18:15;;;;;;;7.18;3.92;;;;;;;4.20;72.35;98928.75;4940523;28;104630;-65
2024/02/06 07:20:43;;;;;;;9.20;4.30;;;;;;;4.20;72.21;98931.38;4937919;28;104181;-65
2024/02/06 07:23:12;;;;;;;14.95;4.28;;;;;;;4.28;72.09;98933.38;4957305;28;103266;-65
2024/02/06 07:25:40;;;;;;;10.45;4.28;;;;;;;4.29;71.93;98940.31;4959380;28;103756;-65
2024/02/06 07:28:08;;;;;;;8.27;3.97;;;;;;;4.27;72.17;98944.81;4940945;28;102744;-65
2024/02/06 07:30:37;;;;;;;8.00;3.88;;;;;;;4.22;71.92;98941.72;4959641;28;103333;-65
2024/02/06 07:33:10;;;;;;;8.73;4.13;;;;;;;4.17;72.50;98941.25;4963243;28;103000;-65
2024/02/06 07:35:38;;;;;;;7.85;3.83;;;;;;;4.34;72.30;98953.88;4947765;28;105340;-65
2024/02/06 07:38:06;;;;;;;11.10;4.25;;;;;;;4.43;72.34;98953.16;4955867;28;103923;-65
2024/02/06 07:40:36;;;;;;;8.20;3.85;;;;;;;4.52;71.96;98942.88;4949508;28;103818;-65
2024/02/06 07:43:05;;;;;;;9.68;3.63;;;;;;;4.56;71.72;98942.50;4945446;28;103224;-64
2024/02/06 07:45:33;;;;;;;10.45;4.20;;;;;;;4.58;71.38;98948.44;4947187;28;102648;-64
2024/02/06 07:48:02;;;;;;;12.05;4.07;;;;;;;4.60;71.64;98953.59;4943828;28;104439;-65
2024/02/06 07:50:30;;;;;;;10.65;4.40;;;;;;;4.60;71.60;98958.84;4954140;28;103396;-65
2024/02/06 07:53:00;;;;;;;10.82;4.60;;;;;;;4.56;71.71;98952.16;4960919;28;103204;-65
2024/02/06 07:55:28;;;;;;;13.48;3.85;;;;;;;4.63;71.83;98958.59;4936401;28;103014;-64
2024/02/06 07:57:56;;;;;;;11.82;4.22;;;;;;;4.61;71.92;98966.59;4934246;28;104095;-65
2024/02/06 08:00:24;;;;;;;8.85;4.15;;;;;;;4.61;71.22;98961.34;4956360;28;103329;-64
2024/02/06 08:02:52;;;;;;;10.48;4.22;;;;;;;4.69;71.22;98960.72;4960599;28;103251;-65
2024/02/06 08:05:23;;;;;;;9.32;3.85;;;;;;;4.66;71.19;98958.31;4935023;28;103644;-65
2024/02/06 08:07:52;;;;;;;10.68;3.92;;;;;;;4.78;71.39;98957.34;4956397;28;104045;-65
2024/02/06 08:10:23;;;;;;;14.52;4.60;;;;;;;4.72;71.39;98960.47;4951288;28;104041;-65
2024/02/06 08:12:52;;;;;;;8.57;3.92;;;;;;;4.82;71.24;98963.16;4953766;28;103015;-65
2024/02/06 08:15:24;;;;;;;10.55;4.35;;;;;;;4.93;70.84;98965.75;4957065;28;102599;-65
2024/02/06 08:17:52;;;;;;;10.25;4.22;;;;;;;4.87;71.14;98966.25;4960545;28;102835;-69
2024/02/06 08:20:34;;;;;;;9.07;3.70;;;;;;;4.86;70.75;98958.50;4931603;28;104081;-69
2024/02/06 08:23:02;;;;;;;10.07;3.75;;;;;;;4.79;71.12;98961.66;4954655;28;103237;-69
2024/02/06 08:25:31;;;;;;;9.48;3.67;;;;;;;4.82;71.18;98968.41;4953393;28;102616;-69
2024/02/06 08:28:08;;;;;;;7.93;3.60;;;;;;;4.87;71.11;98965.44;4958379;28;104092;-65
2024/02/06 08:30:37;;;;;;;11.88;3.60;;;;;;;5.00;71.06;98957.38;4951158;28;103959;-64
2024/02/06 08:33:06;;;;;;;11.45;3.42;;;;;;;5.06;70.90;98955.09;4947058;28;103688;-65
2024/02/06 08:39:15;;;;;;;7.47;3.20;;;;;;;5.07;70.56;98938.38;4932198;28;103947;-65
2024/02/06 08:41:43;;;;;;;7.70;3.22;;;;;;;5.17;70.55;98927.09;4943401;28;103936;-65
2024/02/06 08:44:21;;;;;;;11.50;3.30;;;;;;;5.26;70.53;98918.47;4916717;28;104159;-65
2024/02/06 08:46:49;;;;;;;8.60;3.25;;;;;;;5.28;70.15;98927.88;4952284;23;102800;-64
2024/02/06 08:49:21;;;;;;;8.50;3.05;;;;;;;5.35;70.22;98919.50;4955793;28;103075;-66
2024/02/06 08:51:51;;;;;;;9.45;3.30;;;;;;;5.29;70.12;98912.94;4955747;28;102955;-65
2024/02/06 08:54:20;;;;;;;12.05;3.90;;;;;;;5.38;70.08;98913.97;4953297;28;103434;-65
2024/02/06 08:56:58;;;;;;;10.63;3.50;;;;;;;5.47;70.03;98908.75;4954228;28;102820;-65
2024/02/06 08:59:29;;;;;;;15.40;4.00;;;;;;;5.48;69.69;98907.78;4955602;28;102733;-65
2024/02/06 09:02:02;;;;;;;10.27;4.03;;;;;;;5.48;69.48;98918.31;4962290;23;103284;-65
2024/02/06 09:05:05;;;;;;;12.70;3.65;;;;;;;5.59;69.38;98913.94;4915070;28;104917;-65
2024/02/06 09:08:08;;;;;;;11.25;5.00;;;;;;;5.60;69.38;98905.91;4923894;28;102752;-65
2024/02/06 09:10:37;;;;;;;8.00;3.55;;;;;;;5.65;68.97;98900.28;4947811;23;102953;-65
2024/02/06 09:13:05;;;;;;;8.73;3.20;;;;;;;5.60;69.04;98894.59;4938565;28;104811;-65
2024/02/06 09:15:34;;;;;;;12.05;3.95;;;;;;;5.67;69.31;98895.72;4940710;28;104513;-65
2024/02/06 09:18:03;;;;;;;15.77;3.47;;;;;;;5.76;68.98;98891.47;4960512;28;102658;-65
2024/02/06 09:20:31;;;;;;;12.32;3.47;;;;;;;5.87;68.76;98895.78;4955646;28;102747;-71
2024/02/06 09:23:03;;;;;;;9.80;3.40;;;;;;;5.88;68.52;98882.53;4954620;28;104070;-70
2024/02/06 09:25:33;;;;;;;11.23;3.15;;;;;;;5.89;68.14;98884.16;4952538;28;103447;-70
2024/02/06 09:28:02;;;;;;;8.45;3.30;;;;;;;6.02;68.45;98872.63;4956263;28;102915;-69
2024/02/06 09:30:31;;;;;;;9.45;3.33;;;;;;;6.14;68.08;98877.66;4957713;28;104083;-69
2024/02/06 09:32:59;;;;;;;7.07;3.08;;;;;;;6.05;68.02;98878.47;4940280;28;104472;-70
2024/02/06 09:35:27;;;;;;;8.60;2.53;;;;;;;6.13;67.79;98870.72;4956231;28;104417;-69
2024/02/06 09:41:58;;;;;;;6.43;2.50;;;;;;;6.36;66.73;98864.38;4960013;28;102736;-66
2024/02/06 09:44:28;;;;;;;;;;;;;;;6.41;66.99;98860.38;4957265;28;103319;-67
2024/02/06 09:46:59;;;;;;;6.97;2.30;;;;;;;6.56;66.84;98865.22;4956235;28;103266;-67
2024/02/06 09:49:28;;;;;;;5.82;2.75;;;;;;;6.58;66.56;98866.75;4934924;28;104612;-67
2024/02/06 09:51:57;;;;;;;10.05;2.30;;;;;;;6.61;66.68;98857.75;4937795;28;103985;-67
2024/02/06 09:54:29;;;;;;;5.40;2.50;;;;;;;6.61;66.18;98869.09;4952095;28;104029;-67
2024/02/06 09:57:00;;;;;;;9.90;2.72;;;;;;;6.67;66.58;98862.47;4959137;28;103088;-67
2024/02/06 09:59:29;;;;;;;7.85;2.45;;;;;;;6.71;66.06;98863.84;4962009;28;102653;-67
2024/02/06 10:01:58;;;;;;;9.32;2.55;;;;;;;6.76;66.08;98861.63;4959674;28;102705;-67
2024/02/06 10:04:31;;;;;;;6.13;3.03;;;;;;;6.82;66.15;98869.94;4960016;28;103273;-72
2024/02/06 10:07:00;;;;;;;8.18;2.88;;;;;;;6.84;65.77;98862.72;4959325;28;103191;-71
2024/02/06 10:09:30;;;;;;;8.85;2.30;;;;;;;6.87;65.83;98873.78;4940935;28;102805;-72
2024/02/06 10:12:00;;;;;;;4.30;2.13;;;;;;;6.94;65.31;98868.78;4956004;28;103880;-72
2024/02/06 10:14:28;;;;;;;5.63;2.22;;;;;;;7.01;65.63;98874.31;4939029;28;104551;-71
2024/02/06 10:16:56;;;;;;;6.65;2.60;;;;;;;7.08;65.93;98880.72;4942733;28;102940;-71
2024/02/06 10:19:32;;;;;;;8.73;2.50;;;;;;;7.08;65.50;98880.72;4955984;28;102579;-72
2024/02/06 10:22:00;;;;;;;7.00;2.08;;;;;;;7.08;65.31;98881.53;4959755;28;104995;-72
2024/02/06 10:24:29;;;;;;;10.15;2.50;;;;;;;7.19;65.18;98883.19;4957514;28;104058;-71
2024/02/06 10:27:02;;;;;;;12.65;2.25;;;;;;;7.29;65.12;98885.78;4959698;28;103315;-73
2024/02/06 10:29:32;;;;;;;5.10;1.90;;;;;;;7.37;65.33;98882.44;4937077;28;102919;-72
2024/02/06 10:32:00;;;;;;;3.08;1.63;;;;;;;7.41;64.92;98876.72;4953104;28;103093;-72
2024/02/06 10:34:29;;;;;;;13.82;2.20;;;;;;;7.39;64.27;98872.56;4950468;28;103595;-72
2024/02/06 10:37:01;;;;;;;4.85;1.75;;;;;;;7.46;65.23;98869.22;4948027;28;103224;-72
2024/02/06 10:39:30;;;;;;;6.70;1.40;;;;;;;7.59;64.19;98865.44;4950154;28;102869;-72
2024/02/06 10:42:00;;;;;;;4.50;1.73;;;;;;;7.57;63.94;98867.38;4932357;28;102908;-72
2024/02/06 10:45:00;;;;;;;7.88;1.50;;;;;;;7.71;63.63;98871.38;4932282;28;103264;-67
2024/02/06 10:47:37;;;;;;;6.18;1.50;;;;;;;7.65;63.50;98872.78;4955933;28;103024;-67
2024/02/06 10:50:09;;;;;;;4.50;1.30;;;;;;;7.79;63.61;98871.47;4938091;28;102658;-67
2024/02/06 10:52:40;;;;;;;4.55;1.50;;;;;;;7.80;63.43;98865.22;4959361;28;103020;-68
2024/02/06 10:55:09;;;;;;;4.22;1.25;;;;;;;7.94;62.84;98861.28;4952957;28;104261;-68
2024/02/06 10:57:42;;;;;;;4.70;1.30;;;;;;;8.03;62.72;98854.25;4934727;28;104575;-67
2024/02/06 11:00:15;;;;;;;7.20;1.13;;;;;;;8.10;62.53;98852.72;4954891;28;103049;-66
2024/02/06 11:02:44;;;;;;;3.30;1.20;;;;;;;8.23;62.46;98850.53;4937802;28;102737;-66
2024/02/06 11:05:21;;;;;;;5.00;1.27;;;;;;;8.26;61.75;98847.59;4939313;28;104315;-66
2024/02/06 11:07:54;;;;;;;3.40;0.95;;;;;;;8.32;62.17;98838.25;4939205;28;104122;-67
2024/02/06 11:10:28;;;;;;;5.90;1.38;;;;;;;8.35;61.59;98835.31;4941385;28;103349;-71
2024/02/06 11:13:01;;;;;;;5.20;1.45;;;;;;;8.34;61.86;98836.28;4957806;28;102851;-70
2024/02/06 11:15:36;;;;;;;8.95;1.40;;;;;;;8.51;61.77;98832.00;4957424;28;102664;-71
2024/02/06 11:18:10;;;;;;;5.60;1.08;;;;;;;8.59;61.79;98828.63;4959351;28;103173;-71
2024/02/06 11:20:41;;;;;;;5.95;1.20;;;;;;;8.70;61.43;98836.31;4958932;28;102623;-71
2024/02/06 11:23:10;;;;;;;5.15;0.98;;;;;;;8.61;61.13;98826.66;4960952;28;103834;-71
2024/02/06 11:25:39;;;;;;;8.65;1.30;;;;;;;8.59;60.90;98832.09;4959724;28;103311;-71
2024/02/06 11:28:08;;;;;;;2.25;1.00;;;;;;;8.74;61.59;98816.53;4943394;28;103316;-71
2024/02/06 11:30:37;;;;;;;2.60;0.95;;;;;;;8.75;61.09;98817.34;4961793;28;102637;-72
2024/02/06 11:33:08;;;;;;;8.43;1.50;;;;;;;8.86;60.68;98821.59;4968019;28;102775;-72
2024/02/06 11:35:37;;;;;;;4.68;1.30;;;;;;;8.85;60.72;98819.91;4945236;28;104142;-72
2024/02/06 11:38:08;;;;;;;5.03;1.23;;;;;;;8.85;60.71;98815.44;4943804;28;104427;-72
2024/02/06 11:40:36;;;;;;;8.57;1.52;;;;;;;8.74;60.65;98811.25;4961212;28;102856;-72
2024/02/06 11:43:08;;;;;;;10.77;1.40;;;;;;;8.86;60.92;98813.66;4944630;28;104101;-72
2024/02/06 11:45:38;;;;;;;5.18;1.67;;;;;;;8.95;60.95;98802.97;4964413;28;104121;-71
2024/02/06 11:48:08;;;;;;;6.00;1.10;;;;;;;9.02;60.72;98810.28;4957684;28;103234;-72
2024/02/06 11:50:42;;;;;;;4.97;1.10;;;;;;;9.13;60.57;98804.72;4938100;28;102926;-67
2024/02/06 11:53:13;;;;;;;14.45;1.80;;;;;;;9.01;60.84;98808.63;4935118;28;104840;-66
2024/02/06 11:55:43;;;;;;;8.30;1.45;;;;;;;9.05;60.68;98812.63;4961455;28;103769;-71
2024/02/06 11:58:13;;;;;;;6.65;1.55;;;;;;;9.07;60.11;98800.91;4944184;28;104108;-67
2024/02/06 12:00:43;;;;;;;3.30;1.25;;;;;;;9.14;60.38;98801.09;4959253;28;102724;-70
2024/02/06 12:03:13;;;;;;;6.15;1.50;;;;;;;9.01;60.12;98790.94;4958763;28;103037;-66
2024/02/06 12:05:43;;;;;;;7.18;1.45;;;;;;;9.07;60.20;98786.88;4941469;28;103292;-72
2024/02/06 12:08:19;;;;;;;8.45;1.88;;;;;;;9.19;59.79;98792.72;4963405;28;103325;-73
2024/02/06 12:10:49;;;;;;;10.38;1.73;;;;;;;9.25;59.96;98794.75;4964053;22;103687;-72
2024/02/06 12:13:33;;;;;;;8.25;1.52;;;;;;;9.24;59.56;98785.97;4957403;28;103000;-72
2024/02/06 12:16:04;;;;;;;4.60;1.60;;;;;;;9.26;59.61;98788.44;4961460;28;104039;-72
2024/02/06 12:18:32;;;;;;;6.82;2.20;;;;;;;9.30;60.02;98787.16;4958563;28;103296;-72
2024/02/06 12:21:00;;;;;;;8.52;1.60;;;;;;;9.38;59.77;98784.56;4955953;28;102711;-72
2024/02/06 12:23:29;;;;;;;7.07;1.25;;;;;;;9.49;59.74;98772.06;4956706;28;102617;-72
2024/02/06 12:25:58;;;;;;;9.95;1.63;;;;;;;9.44;59.47;98772.53;4940574;28;104346;-72
2024/02/06 12:28:26;;;;;;;7.82;1.40;;;;;;;9.48;59.98;98773.03;4943217;28;104477;-72
2024/02/06 12:31:04;;;;;;;5.20;1.30;;;;;;;9.66;59.33;98771.13;4956867;28;103321;-67
2024/02/06 12:33:46;;;;;;;6.30;1.50;;;;;;;9.67;58.96;98762.19;4937115;28;103813;-67
2024/02/06 12:36:25;;;;;;;8.50;1.50;;;;;;;9.72;58.89;98749.31;4958369;28;104282;-68
2024/02/06 12:38:53;;;;;;;9.23;1.65;;;;;;;9.71;59.06;98770.66;4938601;28;104178;-68
2024/02/06 12:41:22;;;;;;;6.85;1.60;;;;;;;9.59;58.40;98762.19;4959325;28;102619;-68